KTIW/TIW METAR and TAF weather

Enter ICAO airport designator
Station Type Date Time Source
KTIW METAR 2020/01/20 18:53 UTC NOAA

KTIW 201853Z 00000KT 10SM SCT046 BKN055 08/05 A2995 RMK AO2 RAE1758 SLP144 P0000 T00780050


Station Type Date Time Source
KTIW Decoded METAR 2020/01/20 18:53 UTC NOAA

Tacoma, Tacoma Narrows Airport, WA, United States (KTIW) 47-16-03N 122-34-34W 96M
Jan 20, 2020 - 01:53 PM EST / 2020.01.20 1853 UTC
Wind: Calm:0
Visibility: 10 mile(s):0
Sky conditions: mostly cloudy
Precipitation last hour: A trace
Temperature: 46.0 F (7.8 C)
Dew Point: 41.0 F (5.0 C)
Relative Humidity: 82%
Pressure (altimeter): 29.95 in. Hg (1014 hPa)
ob: KTIW 201853Z 00000KT 10SM SCT046 BKN055 08/05 A2995 RMK AO2 RAE1758 SLP144 P0000 T00780050
cycle: 19

Station Type Date Time Source
KTIW TAF UTC NOAA

Error!

Example: see airport list